sensor_id;sensor_type;location;lat;lon;timestamp;P1;durP1;ratioP1;P2;durP2;ratioP2
60344;SDS011;46188;52.324;8.032;2024-02-14T00:00:13;5.80;;;5.30;;
60344;SDS011;46188;52.324;8.032;2024-02-14T00:02:43;6.32;;;5.07;;
60344;SDS011;46188;52.324;8.032;2024-02-14T00:05:09;6.88;;;4.93;;
60344;SDS011;46188;52.324;8.032;2024-02-14T00:07:35;6.32;;;5.20;;
60344;SDS011;46188;52.324;8.032;2024-02-14T00:10:04;8.15;;;5.10;;
60344;SDS011;46188;52.324;8.032;2024-02-14T00:12:30;7.45;;;5.18;;
60344;SDS011;46188;52.324;8.032;2024-02-14T00:14:56;7.70;;;5.28;;
60344;SDS011;46188;52.324;8.032;2024-02-14T00:17:22;5.45;;;4.95;;
60344;SDS011;46188;52.324;8.032;2024-02-14T00:19:48;5.75;;;4.90;;
60344;SDS011;46188;52.324;8.032;2024-02-14T00:22:13;5.85;;;5.10;;
60344;SDS011;46188;52.324;8.032;2024-02-14T00:24:39;6.60;;;5.65;;
60344;SDS011;46188;52.324;8.032;2024-02-14T00:27:04;6.10;;;5.50;;
60344;SDS011;46188;52.324;8.032;2024-02-14T00:29:29;5.90;;;4.95;;
60344;SDS011;46188;52.324;8.032;2024-02-14T00:31:55;5.68;;;5.10;;
60344;SDS011;46188;52.324;8.032;2024-02-14T00:34:20;6.85;;;5.00;;
60344;SDS011;46188;52.324;8.032;2024-02-14T00:36:46;5.43;;;5.03;;
60344;SDS011;46188;52.324;8.032;2024-02-14T00:39:11;6.55;;;5.45;;
60344;SDS011;46188;52.324;8.032;2024-02-14T00:41:36;5.68;;;5.28;;
60344;SDS011;46188;52.324;8.032;2024-02-14T00:44:02;5.55;;;5.05;;
60344;SDS011;46188;52.324;8.032;2024-02-14T00:46:28;5.25;;;4.85;;
60344;SDS011;46188;52.324;8.032;2024-02-14T00:48:53;8.10;;;5.97;;
60344;SDS011;46188;52.324;8.032;2024-02-14T00:51:19;5.78;;;5.25;;
60344;SDS011;46188;52.324;8.032;2024-02-14T00:53:45;6.32;;;5.55;;
60344;SDS011;46188;52.324;8.032;2024-02-14T00:56:10;5.90;;;5.30;;
60344;SDS011;46188;52.324;8.032;2024-02-14T00:58:35;5.78;;;4.85;;
60344;SDS011;46188;52.324;8.032;2024-02-14T01:01:01;6.07;;;5.43;;
60344;SDS011;46188;52.324;8.032;2024-02-14T01:03:26;5.60;;;5.10;;
60344;SDS011;46188;52.324;8.032;2024-02-14T01:05:51;6.25;;;5.70;;
60344;SDS011;46188;52.324;8.032;2024-02-14T01:08:16;5.75;;;5.28;;
60344;SDS011;46188;52.324;8.032;2024-02-14T01:10:42;8.60;;;5.35;;
60344;SDS011;46188;52.324;8.032;2024-02-14T01:13:07;5.78;;;5.28;;
60344;SDS011;46188;52.324;8.032;2024-02-14T01:15:32;5.95;;;5.43;;
60344;SDS011;46188;52.324;8.032;2024-02-14T01:18:00;6.72;;;5.38;;
60344;SDS011;46188;52.324;8.032;2024-02-14T01:20:26;6.20;;;5.47;;
60344;SDS011;46188;52.324;8.032;2024-02-14T01:22:51;6.00;;;5.40;;
60344;SDS011;46188;52.324;8.032;2024-02-14T01:25:16;5.70;;;5.20;;
60344;SDS011;46188;52.324;8.032;2024-02-14T01:27:41;7.30;;;5.70;;
60344;SDS011;46188;52.324;8.032;2024-02-14T01:30:08;7.97;;;5.45;;
60344;SDS011;46188;52.324;8.032;2024-02-14T01:32:34;5.30;;;4.75;;
60344;SDS011;46188;52.324;8.032;2024-02-14T01:34:59;6.63;;;5.30;;
60344;SDS011;46188;52.324;8.032;2024-02-14T01:37:25;7.10;;;5.22;;
60344;SDS011;46188;52.324;8.032;2024-02-14T01:39:51;6.68;;;4.95;;
60344;SDS011;46188;52.324;8.032;2024-02-14T01:42:16;5.53;;;5.00;;
60344;SDS011;46188;52.324;8.032;2024-02-14T01:44:41;7.68;;;5.18;;
60344;SDS011;46188;52.324;8.032;2024-02-14T01:47:08;6.13;;;5.22;;
60344;SDS011;46188;52.324;8.032;2024-02-14T01:49:34;6.63;;;5.20;;
60344;SDS011;46188;52.324;8.032;2024-02-14T01:52:02;6.55;;;5.00;;
60344;SDS011;46188;52.324;8.032;2024-02-14T01:54:28;5.60;;;5.00;;
60344;SDS011;46188;52.324;8.032;2024-02-14T01:56:54;6.85;;;4.97;;
60344;SDS011;46188;52.324;8.032;2024-02-14T01:59:21;6.60;;;5.28;;
60344;SDS011;46188;52.324;8.032;2024-02-14T02:01:48;6.35;;;4.70;;
60344;SDS011;46188;52.324;8.032;2024-02-14T02:04:13;8.95;;;5.20;;
60344;SDS011;46188;52.324;8.032;2024-02-14T02:06:38;6.88;;;4.75;;
60344;SDS011;46188;52.324;8.032;2024-02-14T02:09:06;9.68;;;5.25;;
60344;SDS011;46188;52.324;8.032;2024-02-14T02:11:41;7.45;;;4.90;;
60344;SDS011;46188;52.324;8.032;2024-02-14T02:14:07;4.88;;;4.32;;
60344;SDS011;46188;52.324;8.032;2024-02-14T02:16:33;8.48;;;4.57;;
60344;SDS011;46188;52.324;8.032;2024-02-14T02:18:58;6.10;;;4.78;;
60344;SDS011;46188;52.324;8.032;2024-02-14T02:21:24;5.95;;;4.90;;
60344;SDS011;46188;52.324;8.032;2024-02-14T02:23:49;7.10;;;5.03;;
60344;SDS011;46188;52.324;8.032;2024-02-14T02:26:14;6.72;;;4.72;;
60344;SDS011;46188;52.324;8.032;2024-02-14T02:28:39;6.43;;;4.43;;
60344;SDS011;46188;52.324;8.032;2024-02-14T02:31:05;8.77;;;4.40;;
60344;SDS011;46188;52.324;8.032;2024-02-14T02:33:30;5.80;;;4.63;;
60344;SDS011;46188;52.324;8.032;2024-02-14T02:35:56;5.35;;;4.65;;
60344;SDS011;46188;52.324;8.032;2024-02-14T02:38:21;5.68;;;4.57;;
60344;SDS011;46188;52.324;8.032;2024-02-14T02:40:47;6.53;;;4.88;;
60344;SDS011;46188;52.324;8.032;2024-02-14T02:43:13;5.95;;;4.85;;
60344;SDS011;46188;52.324;8.032;2024-02-14T02:45:38;5.38;;;4.88;;
60344;SDS011;46188;52.324;8.032;2024-02-14T02:48:04;6.57;;;4.45;;
60344;SDS011;46188;52.324;8.032;2024-02-14T02:50:29;5.03;;;4.43;;
60344;SDS011;46188;52.324;8.032;2024-02-14T02:52:55;5.50;;;4.43;;
60344;SDS011;46188;52.324;8.032;2024-02-14T02:55:20;7.85;;;4.30;;
60344;SDS011;46188;52.324;8.032;2024-02-14T02:57:45;5.30;;;4.70;;
60344;SDS011;46188;52.324;8.032;2024-02-14T03:00:11;6.30;;;5.05;;
60344;SDS011;46188;52.324;8.032;2024-02-14T03:02:37;5.80;;;4.05;;
60344;SDS011;46188;52.324;8.032;2024-02-14T03:05:06;5.63;;;4.10;;
60344;SDS011;46188;52.324;8.032;2024-02-14T03:07:35;6.68;;;4.38;;
60344;SDS011;46188;52.324;8.032;2024-02-14T03:10:00;10.75;;;4.50;;
60344;SDS011;46188;52.324;8.032;2024-02-14T03:12:26;5.53;;;3.92;;
60344;SDS011;46188;52.324;8.032;2024-02-14T03:14:53;6.68;;;4.57;;
60344;SDS011;46188;52.324;8.032;2024-02-14T03:17:19;4.50;;;4.03;;
60344;SDS011;46188;52.324;8.032;2024-02-14T03:19:44;5.53;;;4.45;;
60344;SDS011;46188;52.324;8.032;2024-02-14T03:22:09;5.00;;;4.22;;
60344;SDS011;46188;52.324;8.032;2024-02-14T03:24:35;7.07;;;4.38;;
60344;SDS011;46188;52.324;8.032;2024-02-14T03:27:03;7.68;;;4.63;;
60344;SDS011;46188;52.324;8.032;2024-02-14T03:29:31;5.65;;;4.78;;
60344;SDS011;46188;52.324;8.032;2024-02-14T03:31:57;6.20;;;5.55;;
60344;SDS011;46188;52.324;8.032;2024-02-14T03:34:24;6.80;;;5.10;;
60344;SDS011;46188;52.324;8.032;2024-02-14T03:36:50;6.70;;;6.00;;
60344;SDS011;46188;52.324;8.032;2024-02-14T03:39:15;6.15;;;5.15;;
60344;SDS011;46188;52.324;8.032;2024-02-14T03:41:42;6.60;;;5.47;;
60344;SDS011;46188;52.324;8.032;2024-02-14T03:44:07;8.57;;;5.85;;
60344;SDS011;46188;52.324;8.032;2024-02-14T03:46:34;6.68;;;5.55;;
60344;SDS011;46188;52.324;8.032;2024-02-14T03:49:00;8.73;;;6.35;;
60344;SDS011;46188;52.324;8.032;2024-02-14T03:51:25;6.45;;;5.65;;
60344;SDS011;46188;52.324;8.032;2024-02-14T03:53:51;8.63;;;5.80;;
60344;SDS011;46188;52.324;8.032;2024-02-14T03:56:16;6.57;;;5.45;;
60344;SDS011;46188;52.324;8.032;2024-02-14T03:58:42;9.55;;;6.03;;
60344;SDS011;46188;52.324;8.032;2024-02-14T04:01:07;8.23;;;6.00;;
60344;SDS011;46188;52.324;8.032;2024-02-14T04:03:33;8.48;;;5.97;;
60344;SDS011;46188;52.324;8.032;2024-02-14T04:05:58;6.75;;;5.82;;
60344;SDS011;46188;52.324;8.032;2024-02-14T04:08:24;7.28;;;6.28;;
60344;SDS011;46188;52.324;8.032;2024-02-14T04:10:49;8.20;;;6.10;;
60344;SDS011;46188;52.324;8.032;2024-02-14T04:13:19;9.95;;;7.18;;
60344;SDS011;46188;52.324;8.032;2024-02-14T04:15:44;9.45;;;7.10;;
60344;SDS011;46188;52.324;8.032;2024-02-14T04:18:09;7.05;;;6.20;;
60344;SDS011;46188;52.324;8.032;2024-02-14T04:20:35;8.18;;;6.43;;
60344;SDS011;46188;52.324;8.032;2024-02-14T04:23:00;8.65;;;6.75;;
60344;SDS011;46188;52.324;8.032;2024-02-14T04:25:25;8.93;;;6.93;;
60344;SDS011;46188;52.324;8.032;2024-02-14T04:27:51;7.60;;;6.72;;
60344;SDS011;46188;52.324;8.032;2024-02-14T04:30:16;10.07;;;7.63;;
60344;SDS011;46188;52.324;8.032;2024-02-14T04:32:41;9.27;;;7.28;;
60344;SDS011;46188;52.324;8.032;2024-02-14T04:35:08;9.52;;;6.75;;
60344;SDS011;46188;52.324;8.032;2024-02-14T04:37:34;8.82;;;7.10;;
60344;SDS011;46188;52.324;8.032;2024-02-14T04:39:59;8.35;;;7.13;;
60344;SDS011;46188;52.324;8.032;2024-02-14T04:42:24;11.40;;;7.75;;
60344;SDS011;46188;52.324;8.032;2024-02-14T04:44:49;11.18;;;7.93;;
60344;SDS011;46188;52.324;8.032;2024-02-14T04:47:15;9.05;;;7.03;;
60344;SDS011;46188;52.324;8.032;2024-02-14T04:49:40;10.55;;;7.72;;
60344;SDS011;46188;52.324;8.032;2024-02-14T04:52:05;8.50;;;6.97;;
60344;SDS011;46188;52.324;8.032;2024-02-14T04:54:32;8.70;;;7.47;;
60344;SDS011;46188;52.324;8.032;2024-02-14T04:56:58;8.15;;;7.03;;
60344;SDS011;46188;52.324;8.032;2024-02-14T04:59:23;12.10;;;7.75;;
60344;SDS011;46188;52.324;8.032;2024-02-14T05:01:48;7.95;;;7.03;;
60344;SDS011;46188;52.324;8.032;2024-02-14T05:04:15;9.77;;;7.90;;
60344;SDS011;46188;52.324;8.032;2024-02-14T05:06:41;8.18;;;7.28;;
60344;SDS011;46188;52.324;8.032;2024-02-14T05:09:07;9.20;;;7.45;;
60344;SDS011;46188;52.324;8.032;2024-02-14T05:11:32;9.70;;;7.18;;
60344;SDS011;46188;52.324;8.032;2024-02-14T05:13:57;7.45;;;6.30;;
60344;SDS011;46188;52.324;8.032;2024-02-14T05:16:22;8.85;;;6.28;;
60344;SDS011;46188;52.324;8.032;2024-02-14T05:18:48;6.13;;;5.53;;
60344;SDS011;46188;52.324;8.032;2024-02-14T05:21:13;8.20;;;6.68;;
60344;SDS011;46188;52.324;8.032;2024-02-14T05:23:39;6.30;;;5.70;;
60344;SDS011;46188;52.324;8.032;2024-02-14T05:26:04;7.80;;;6.47;;
60344;SDS011;46188;52.324;8.032;2024-02-14T05:28:30;7.20;;;5.93;;
60344;SDS011;46188;52.324;8.032;2024-02-14T05:30:59;6.80;;;5.65;;
60344;SDS011;46188;52.324;8.032;2024-02-14T05:33:25;7.40;;;5.28;;
60344;SDS011;46188;52.324;8.032;2024-02-14T05:35:50;7.07;;;5.43;;
60344;SDS011;46188;52.324;8.032;2024-02-14T05:38:16;6.00;;;5.40;;
60344;SDS011;46188;52.324;8.032;2024-02-14T05:40:44;6.65;;;5.15;;
60344;SDS011;46188;52.324;8.032;2024-02-14T05:43:10;6.28;;;5.68;;
60344;SDS011;46188;52.324;8.032;2024-02-14T05:45:35;7.28;;;5.55;;
60344;SDS011;46188;52.324;8.032;2024-02-14T05:48:01;7.93;;;5.78;;
60344;SDS011;46188;52.324;8.032;2024-02-14T05:50:27;6.43;;;5.70;;
60344;SDS011;46188;52.324;8.032;2024-02-14T05:52:52;5.85;;;5.25;;
60344;SDS011;46188;52.324;8.032;2024-02-14T05:55:17;6.93;;;5.22;;
60344;SDS011;46188;52.324;8.032;2024-02-14T05:57:43;7.05;;;5.22;;
60344;SDS011;46188;52.324;8.032;2024-02-14T06:00:09;6.95;;;5.70;;
60344;SDS011;46188;52.324;8.032;2024-02-14T06:02:35;5.68;;;5.07;;
60344;SDS011;46188;52.324;8.032;2024-02-14T06:05:00;8.05;;;5.18;;
60344;SDS011;46188;52.324;8.032;2024-02-14T06:07:25;6.15;;;5.25;;
60344;SDS011;46188;52.324;8.032;2024-02-14T06:09:50;6.28;;;4.85;;
60344;SDS011;46188;52.324;8.032;2024-02-14T06:12:16;5.10;;;4.60;;
60344;SDS011;46188;52.324;8.032;2024-02-14T06:14:41;5.70;;;5.13;;
60344;SDS011;46188;52.324;8.032;2024-02-14T06:17:06;6.95;;;5.15;;
60344;SDS011;46188;52.324;8.032;2024-02-14T06:19:31;5.90;;;5.22;;
60344;SDS011;46188;52.324;8.032;2024-02-14T06:21:58;6.00;;;5.00;;
60344;SDS011;46188;52.324;8.032;2024-02-14T06:24:24;5.18;;;4.68;;
60344;SDS011;46188;52.324;8.032;2024-02-14T06:26:49;5.25;;;4.75;;
60344;SDS011;46188;52.324;8.032;2024-02-14T06:29:14;5.88;;;5.25;;
60344;SDS011;46188;52.324;8.032;2024-02-14T06:31:40;5.72;;;4.72;;
60344;SDS011;46188;52.324;8.032;2024-02-14T06:34:05;5.82;;;4.70;;
60344;SDS011;46188;52.324;8.032;2024-02-14T06:36:32;6.53;;;5.47;;
60344;SDS011;46188;52.324;8.032;2024-02-14T06:38:57;6.70;;;5.68;;
60344;SDS011;46188;52.324;8.032;2024-02-14T06:41:22;6.07;;;5.28;;
60344;SDS011;46188;52.324;8.032;2024-02-14T06:43:48;6.20;;;5.60;;
60344;SDS011;46188;52.324;8.032;2024-02-14T06:46:14;8.10;;;6.20;;
60344;SDS011;46188;52.324;8.032;2024-02-14T06:48:39;6.18;;;5.57;;
60344;SDS011;46188;52.324;8.032;2024-02-14T06:51:06;5.95;;;5.18;;
60344;SDS011;46188;52.324;8.032;2024-02-14T06:53:31;6.75;;;6.05;;
60344;SDS011;46188;52.324;8.032;2024-02-14T06:55:57;6.90;;;5.65;;
60344;SDS011;46188;52.324;8.032;2024-02-14T06:58:22;6.68;;;6.00;;
60344;SDS011;46188;52.324;8.032;2024-02-14T07:00:47;6.80;;;5.97;;
60344;SDS011;46188;52.324;8.032;2024-02-14T07:03:12;6.93;;;5.85;;
60344;SDS011;46188;52.324;8.032;2024-02-14T07:05:38;8.00;;;5.65;;
60344;SDS011;46188;52.324;8.032;2024-02-14T07:08:04;5.95;;;5.22;;
60344;SDS011;46188;52.324;8.032;2024-02-14T07:10:30;7.97;;;6.32;;
60344;SDS011;46188;52.324;8.032;2024-02-14T07:12:55;6.75;;;5.50;;
60344;SDS011;46188;52.324;8.032;2024-02-14T07:15:20;7.50;;;6.32;;
60344;SDS011;46188;52.324;8.032;2024-02-14T07:17:45;8.00;;;5.93;;
60344;SDS011;46188;52.324;8.032;2024-02-14T07:20:11;7.97;;;6.68;;
60344;SDS011;46188;52.324;8.032;2024-02-14T07:22:36;9.23;;;6.60;;
60344;SDS011;46188;52.324;8.032;2024-02-14T07:25:02;7.32;;;6.43;;
60344;SDS011;46188;52.324;8.032;2024-02-14T07:27:29;6.85;;;5.95;;
60344;SDS011;46188;52.324;8.032;2024-02-14T07:29:55;7.57;;;6.05;;
60344;SDS011;46188;52.324;8.032;2024-02-14T07:32:20;10.60;;;6.82;;
60344;SDS011;46188;52.324;8.032;2024-02-14T07:34:45;12.48;;;6.60;;
60344;SDS011;46188;52.324;8.032;2024-02-14T07:37:11;6.95;;;6.05;;
60344;SDS011;46188;52.324;8.032;2024-02-14T07:39:36;8.82;;;6.20;;
60344;SDS011;46188;52.324;8.032;2024-02-14T07:42:02;7.05;;;6.00;;
60344;SDS011;46188;52.324;8.032;2024-02-14T07:44:27;9.88;;;6.63;;
60344;SDS011;46188;52.324;8.032;2024-02-14T07:46:52;8.40;;;6.55;;
60344;SDS011;46188;52.324;8.032;2024-02-14T07:49:18;7.95;;;6.47;;
60344;SDS011;46188;52.324;8.032;2024-02-14T07:51:44;8.43;;;6.78;;
60344;SDS011;46188;52.324;8.032;2024-02-14T07:54:09;7.63;;;6.75;;
60344;SDS011;46188;52.324;8.032;2024-02-14T07:56:34;7.18;;;6.00;;
60344;SDS011;46188;52.324;8.032;2024-02-14T07:59:00;9.60;;;6.80;;
60344;SDS011;46188;52.324;8.032;2024-02-14T08:01:25;8.25;;;6.30;;
60344;SDS011;46188;52.324;8.032;2024-02-14T08:03:50;7.75;;;6.05;;
60344;SDS011;46188;52.324;8.032;2024-02-14T08:06:16;9.90;;;6.60;;
60344;SDS011;46188;52.324;8.032;2024-02-14T08:08:41;11.95;;;6.03;;
60344;SDS011;46188;52.324;8.032;2024-02-14T08:11:08;8.20;;;6.25;;
60344;SDS011;46188;52.324;8.032;2024-02-14T08:13:34;10.23;;;6.60;;
60344;SDS011;46188;52.324;8.032;2024-02-14T08:15:59;7.45;;;6.53;;
60344;SDS011;46188;52.324;8.032;2024-02-14T08:18:24;6.95;;;6.25;;
60344;SDS011;46188;52.324;8.032;2024-02-14T08:20:52;8.52;;;6.57;;
60344;SDS011;46188;52.324;8.032;2024-02-14T08:23:17;7.35;;;5.97;;
60344;SDS011;46188;52.324;8.032;2024-02-14T08:25:42;7.10;;;6.20;;
60344;SDS011;46188;52.324;8.032;2024-02-14T08:28:07;9.93;;;6.85;;
60344;SDS011;46188;52.324;8.032;2024-02-14T08:30:33;9.75;;;6.55;;
60344;SDS011;46188;52.324;8.032;2024-02-14T08:32:59;7.43;;;6.28;;
60344;SDS011;46188;52.324;8.032;2024-02-14T08:35:24;8.15;;;6.07;;
60344;SDS011;46188;52.324;8.032;2024-02-14T08:37:49;8.07;;;6.32;;
60344;SDS011;46188;52.324;8.032;2024-02-14T08:40:14;8.38;;;6.00;;
60344;SDS011;46188;52.324;8.032;2024-02-14T08:42:40;6.50;;;5.78;;
60344;SDS011;46188;52.324;8.032;2024-02-14T08:45:05;8.32;;;6.10;;
60344;SDS011;46188;52.324;8.032;2024-02-14T08:47:31;7.45;;;6.20;;
60344;SDS011;46188;52.324;8.032;2024-02-14T08:49:56;8.18;;;6.05;;
60344;SDS011;46188;52.324;8.032;2024-02-14T08:52:21;6.93;;;6.10;;
60344;SDS011;46188;52.324;8.032;2024-02-14T08:54:46;7.88;;;5.88;;
60344;SDS011;46188;52.324;8.032;2024-02-14T08:57:12;6.65;;;5.63;;
60344;SDS011;46188;52.324;8.032;2024-02-14T08:59:37;10.70;;;5.90;;
60344;SDS011;46188;52.324;8.032;2024-02-14T09:02:02;7.60;;;5.47;;
60344;SDS011;46188;52.324;8.032;2024-02-14T09:04:28;7.85;;;5.75;;
60344;SDS011;46188;52.324;8.032;2024-02-14T09:06:54;6.55;;;5.43;;
60344;SDS011;46188;52.324;8.032;2024-02-14T09:09:19;7.35;;;6.22;;
60344;SDS011;46188;52.324;8.032;2024-02-14T09:11:45;9.02;;;5.75;;
60344;SDS011;46188;52.324;8.032;2024-02-14T09:14:11;5.97;;;5.30;;
60344;SDS011;46188;52.324;8.032;2024-02-14T09:16:37;8.48;;;5.50;;
60344;SDS011;46188;52.324;8.032;2024-02-14T09:19:02;6.38;;;5.35;;
60344;SDS011;46188;52.324;8.032;2024-02-14T09:21:30;6.43;;;4.88;;
60344;SDS011;46188;52.324;8.032;2024-02-14T09:23:55;5.60;;;4.78;;
60344;SDS011;46188;52.324;8.032;2024-02-14T09:26:21;5.38;;;4.57;;
60344;SDS011;46188;52.324;8.032;2024-02-14T09:28:46;6.38;;;4.72;;
60344;SDS011;46188;52.324;8.032;2024-02-14T09:31:11;5.55;;;4.68;;
60344;SDS011;46188;52.324;8.032;2024-02-14T09:33:37;4.93;;;4.43;;
60344;SDS011;46188;52.324;8.032;2024-02-14T09:36:03;4.97;;;4.45;;
60344;SDS011;46188;52.324;8.032;2024-02-14T09:38:29;5.43;;;4.65;;
60344;SDS011;46188;52.324;8.032;2024-02-14T09:40:58;6.60;;;4.30;;
60344;SDS011;46188;52.324;8.032;2024-02-14T09:43:48;5.13;;;4.63;;
60344;SDS011;46188;52.324;8.032;2024-02-14T09:46:14;4.82;;;4.18;;
60344;SDS011;46188;52.324;8.032;2024-02-14T09:48:43;4.53;;;3.88;;
60344;SDS011;46188;52.324;8.032;2024-02-14T09:51:10;6.60;;;4.60;;
60344;SDS011;46188;52.324;8.032;2024-02-14T09:53:37;4.30;;;3.90;;
60344;SDS011;46188;52.324;8.032;2024-02-14T09:56:05;5.63;;;4.43;;
60344;SDS011;46188;52.324;8.032;2024-02-14T09:58:33;5.70;;;5.00;;
60344;SDS011;46188;52.324;8.032;2024-02-14T10:00:59;5.47;;;4.63;;
60344;SDS011;46188;52.324;8.032;2024-02-14T10:03:24;6.05;;;4.47;;
60344;SDS011;46188;52.324;8.032;2024-02-14T10:05:50;5.72;;;4.40;;
60344;SDS011;46188;52.324;8.032;2024-02-14T10:08:16;5.65;;;4.97;;
60344;SDS011;46188;52.324;8.032;2024-02-14T10:10:42;6.60;;;4.85;;
60344;SDS011;46188;52.324;8.032;2024-02-14T10:13:08;5.55;;;4.65;;
60344;SDS011;46188;52.324;8.032;2024-02-14T10:15:33;6.32;;;5.18;;
60344;SDS011;46188;52.324;8.032;2024-02-14T10:17:59;5.85;;;4.80;;
60344;SDS011;46188;52.324;8.032;2024-02-14T10:20:25;6.22;;;5.03;;
60344;SDS011;46188;52.324;8.032;2024-02-14T10:22:51;6.32;;;4.70;;
60344;SDS011;46188;52.324;8.032;2024-02-14T10:25:17;6.40;;;5.25;;
60344;SDS011;46188;52.324;8.032;2024-02-14T10:27:43;7.07;;;5.40;;
60344;SDS011;46188;52.324;8.032;2024-02-14T10:30:11;6.65;;;5.68;;
60344;SDS011;46188;52.324;8.032;2024-02-14T10:32:37;8.13;;;5.68;;
60344;SDS011;46188;52.324;8.032;2024-02-14T10:35:04;7.05;;;5.70;;
60344;SDS011;46188;52.324;8.032;2024-02-14T10:37:37;8.67;;;5.27;;
60344;SDS011;46188;52.324;8.032;2024-02-14T10:40:03;9.55;;;6.07;;
60344;SDS011;46188;52.324;8.032;2024-02-14T10:42:29;6.93;;;5.38;;
60344;SDS011;46188;52.324;8.032;2024-02-14T10:44:58;7.97;;;6.00;;
60344;SDS011;46188;52.324;8.032;2024-02-14T10:47:45;7.15;;;6.18;;
60344;SDS011;46188;52.324;8.032;2024-02-14T10:50:12;7.32;;;6.10;;
60344;SDS011;46188;52.324;8.032;2024-02-14T10:52:40;7.07;;;5.72;;
60344;SDS011;46188;52.324;8.032;2024-02-14T10:55:06;7.82;;;6.65;;
60344;SDS011;46188;52.324;8.032;2024-02-14T10:57:32;8.00;;;6.35;;
60344;SDS011;46188;52.324;8.032;2024-02-14T11:00:15;7.45;;;5.65;;
60344;SDS011;46188;52.324;8.032;2024-02-14T11:02:43;6.93;;;5.97;;
60344;SDS011;46188;52.324;8.032;2024-02-14T11:05:14;9.00;;;6.55;;
60344;SDS011;46188;52.324;8.032;2024-02-14T11:07:44;7.53;;;5.97;;
60344;SDS011;46188;52.324;8.032;2024-02-14T11:10:13;6.88;;;5.82;;
60344;SDS011;46188;52.324;8.032;2024-02-14T11:12:40;8.65;;;6.35;;
60344;SDS011;46188;52.324;8.032;2024-02-14T11:15:09;6.47;;;5.25;;
60344;SDS011;46188;52.324;8.032;2024-02-14T11:17:36;7.38;;;5.55;;
60344;SDS011;46188;52.324;8.032;2024-02-14T11:20:11;6.03;;;5.43;;
60344;SDS011;46188;52.324;8.032;2024-02-14T11:22:37;9.02;;;5.95;;
60344;SDS011;46188;52.324;8.032;2024-02-14T11:25:06;6.25;;;5.07;;
60344;SDS011;46188;52.324;8.032;2024-02-14T11:27:32;7.50;;;5.32;;
60344;SDS011;46188;52.324;8.032;2024-02-14T11:29:58;8.23;;;5.13;;
60344;SDS011;46188;52.324;8.032;2024-02-14T11:32:24;7.30;;;5.03;;
60344;SDS011;46188;52.324;8.032;2024-02-14T11:34:55;5.95;;;5.18;;
60344;SDS011;46188;52.324;8.032;2024-02-14T11:37:27;8.05;;;5.35;;
60344;SDS011;46188;52.324;8.032;2024-02-14T11:39:53;6.35;;;5.07;;
60344;SDS011;46188;52.324;8.032;2024-02-14T11:42:21;5.90;;;5.18;;
60344;SDS011;46188;52.324;8.032;2024-02-14T11:44:46;4.85;;;4.35;;
60344;SDS011;46188;52.324;8.032;2024-02-14T11:47:11;6.03;;;4.65;;
60344;SDS011;46188;52.324;8.032;2024-02-14T11:49:37;5.22;;;4.43;;
60344;SDS011;46188;52.324;8.032;2024-02-14T11:52:04;6.63;;;4.85;;
60344;SDS011;46188;52.324;8.032;2024-02-14T11:54:29;6.03;;;4.47;;
60344;SDS011;46188;52.324;8.032;2024-02-14T11:56:54;6.53;;;4.97;;
60344;SDS011;46188;52.324;8.032;2024-02-14T11:59:20;5.70;;;4.72;;
60344;SDS011;46188;52.324;8.032;2024-02-14T12:01:48;4.80;;;4.22;;
60344;SDS011;46188;52.324;8.032;2024-02-14T12:04:14;5.75;;;4.32;;
60344;SDS011;46188;52.324;8.032;2024-02-14T12:06:40;6.00;;;4.28;;
60344;SDS011;46188;52.324;8.032;2024-02-14T12:09:08;4.38;;;3.97;;
60344;SDS011;46188;52.324;8.032;2024-02-14T12:11:37;5.82;;;4.18;;
60344;SDS011;46188;52.324;8.032;2024-02-14T12:14:08;5.95;;;4.82;;
60344;SDS011;46188;52.324;8.032;2024-02-14T12:16:37;4.82;;;4.28;;
60344;SDS011;46188;52.324;8.032;2024-02-14T12:19:14;4.97;;;3.97;;
60344;SDS011;46188;52.324;8.032;2024-02-14T12:21:41;4.57;;;4.10;;
60344;SDS011;46188;52.324;8.032;2024-02-14T12:24:07;6.45;;;4.40;;
60344;SDS011;46188;52.324;8.032;2024-02-14T12:26:33;8.15;;;3.88;;
60344;SDS011;46188;52.324;8.032;2024-02-14T12:29:03;4.47;;;4.00;;
60344;SDS011;46188;52.324;8.032;2024-02-14T12:31:32;5.43;;;4.47;;
60344;SDS011;46188;52.324;8.032;2024-02-14T12:33:58;6.05;;;4.20;;
60344;SDS011;46188;52.324;8.032;2024-02-14T12:36:29;5.88;;;4.53;;
60344;SDS011;46188;52.324;8.032;2024-02-14T12:38:56;5.25;;;4.28;;
60344;SDS011;46188;52.324;8.032;2024-02-14T12:41:21;5.13;;;4.30;;
60344;SDS011;46188;52.324;8.032;2024-02-14T12:43:51;5.53;;;4.45;;
60344;SDS011;46188;52.324;8.032;2024-02-14T12:46:17;4.72;;;4.20;;
60344;SDS011;46188;52.324;8.032;2024-02-14T12:48:42;5.55;;;4.25;;
60344;SDS011;46188;52.324;8.032;2024-02-14T12:51:07;5.65;;;4.47;;
60344;SDS011;46188;52.324;8.032;2024-02-14T12:53:33;6.90;;;4.57;;
60344;SDS011;46188;52.324;8.032;2024-02-14T12:55:59;8.45;;;5.18;;
60344;SDS011;46188;52.324;8.032;2024-02-14T12:58:24;6.57;;;4.80;;
60344;SDS011;46188;52.324;8.032;2024-02-14T13:00:50;6.45;;;5.63;;
60344;SDS011;46188;52.324;8.032;2024-02-14T13:03:15;7.15;;;5.28;;
60344;SDS011;46188;52.324;8.032;2024-02-14T13:05:40;6.75;;;6.03;;
60344;SDS011;46188;52.324;8.032;2024-02-14T13:08:06;7.22;;;5.45;;
60344;SDS011;46188;52.324;8.032;2024-02-14T13:10:32;7.07;;;5.53;;
60344;SDS011;46188;52.324;8.032;2024-02-14T13:12:57;7.90;;;5.00;;
60344;SDS011;46188;52.324;8.032;2024-02-14T13:15:23;7.18;;;5.43;;
60344;SDS011;46188;52.324;8.032;2024-02-14T13:17:48;8.45;;;5.93;;
60344;SDS011;46188;52.324;8.032;2024-02-14T13:20:14;8.15;;;5.82;;
60344;SDS011;46188;52.324;8.032;2024-02-14T13:22:40;7.47;;;5.95;;
60344;SDS011;46188;52.324;8.032;2024-02-14T13:25:07;9.00;;;5.43;;
60344;SDS011;46188;52.324;8.032;2024-02-14T13:27:32;8.15;;;5.38;;
60344;SDS011;46188;52.324;8.032;2024-02-14T13:29:58;9.00;;;6.38;;
60344;SDS011;46188;52.324;8.032;2024-02-14T13:32:23;7.20;;;6.10;;
60344;SDS011;46188;52.324;8.032;2024-02-14T13:34:49;9.68;;;6.70;;
60344;SDS011;46188;52.324;8.032;2024-02-14T13:37:14;9.80;;;6.53;;
60344;SDS011;46188;52.324;8.032;2024-02-14T13:39:40;7.47;;;6.07;;
60344;SDS011;46188;52.324;8.032;2024-02-14T13:42:06;9.10;;;7.03;;
60344;SDS011;46188;52.324;8.032;2024-02-14T13:44:32;7.50;;;6.35;;
60344;SDS011;46188;52.324;8.032;2024-02-14T13:46:58;10.85;;;6.88;;
60344;SDS011;46188;52.324;8.032;2024-02-14T13:49:24;11.05;;;7.55;;
60344;SDS011;46188;52.324;8.032;2024-02-14T13:51:52;9.20;;;6.88;;
60344;SDS011;46188;52.324;8.032;2024-02-14T13:54:18;10.65;;;8.48;;
60344;SDS011;46188;52.324;8.032;2024-02-14T13:56:43;10.88;;;8.70;;
60344;SDS011;46188;52.324;8.032;2024-02-14T13:59:09;11.20;;;8.85;;
60344;SDS011;46188;52.324;8.032;2024-02-14T14:01:35;12.02;;;9.60;;
60344;SDS011;46188;52.324;8.032;2024-02-14T14:04:00;13.48;;;10.30;;
60344;SDS011;46188;52.324;8.032;2024-02-14T14:06:26;13.85;;;10.60;;
60344;SDS011;46188;52.324;8.032;2024-02-14T14:08:51;16.85;;;10.85;;
60344;SDS011;46188;52.324;8.032;2024-02-14T14:11:16;16.40;;;11.05;;
60344;SDS011;46188;52.324;8.032;2024-02-14T14:13:42;14.65;;;11.10;;
60344;SDS011;46188;52.324;8.032;2024-02-14T14:16:07;14.73;;;11.35;;
60344;SDS011;46188;52.324;8.032;2024-02-14T14:18:33;16.80;;;12.57;;
60344;SDS011;46188;52.324;8.032;2024-02-14T14:21:00;15.55;;;12.13;;
60344;SDS011;46188;52.324;8.032;2024-02-14T14:23:25;17.50;;;11.85;;
60344;SDS011;46188;52.324;8.032;2024-02-14T14:25:51;14.23;;;11.50;;
60344;SDS011;46188;52.324;8.032;2024-02-14T14:28:16;16.35;;;12.73;;
60344;SDS011;46188;52.324;8.032;2024-02-14T14:30:42;17.10;;;13.85;;
60344;SDS011;46188;52.324;8.032;2024-02-14T14:33:08;17.27;;;13.40;;
60344;SDS011;46188;52.324;8.032;2024-02-14T14:35:33;16.58;;;13.02;;
60344;SDS011;46188;52.324;8.032;2024-02-14T14:38:00;20.35;;;13.68;;